CLL weather

Easterwood Field
College Station, Texas, United States

Public forecast

Using degrees Fahrenheit for public forecast. Weather courtesy of forecast.io.

Current aviation weather report (METAR) for Easterwood Field

Retrieved 2020/03/30 06:53 UTC (35 minutes ago):

KCLL 300653Z AUTO 05006KT 10SM OVC035 19/13 A3007 RMK AO2 SLP179 T01890128

Aviation forecast (TAF) for Easterwood Field

Retrieved 2020/03/30 06:22 UTC (1 hour ago):

TAF KCLL 300520Z 3006/3106 07005KT P6SM OVC070 FM301300 09006KT P6SM VCSH OVC025 FM301800 11008KT P6SM VCTS OVC021CB FM310000 15010KT P6SM VCSH OVC027 FM310300 18010KT P6SM VCSH OVC040